ADDS TAF Data INFO
IDs: Format: Raw Decoded Include METARs

Data at: 1005 UTC 19 Nov 2017

KBCE 190953Z AUTO 24005KT 10SM CLR M14/M16 A3034 RMK AO2 SLP276 T11391161

KBCE 190530Z 1906/2006 27004KT P6SM FEW200
  FM191700 15008KT P6SM SKC
  FM200100 26005KT P6SM FEW200